CLD weather

Public forecast

Using degrees Fahrenheit for public forecast. Weather courtesy of forecast.io.

Current aviation weather report (METAR) for Mc Clellan-Palomar Airport

Retrieved 2020/08/13 22:53 UTC (34 minutes ago):

KCRQ 132253Z 27005KT 10SM CLR 26/14 A2986 RMK AO2 SLP108 T02610144

Aviation forecast (TAF) for Mc Clellan-Palomar Airport

Retrieved 2020/08/13 18:24 UTC (5 hours ago):

TAF KCRQ 131722Z 1318/1418 26008KT P6SM BKN150 FM140200 VRB04KT P6SM SCT250